Airfield :







YOU CAN JOIN US ON...

 
LOGIN :

Register | Disclaimer

   EN    FR    IT 

 









Legend :    VFR   Marginal VFR   IFR   Intensive IFR   Very Intensive IFR
Visi :
Ceiling :
>= 8 km
>= 3000ft
5 to 8 km
1000 to 3000 ft
1500m to 5 km
500 to 1000 ft
800 to 1500m
200 to 500 ft
< 800m
< 200 ft
Symbols :   Thunderstorms  Fog  Heavy snow  Heavy precipitations  Wind > 20 kt






- Airport Elevation : 328 ft


KGFL - Floyd Bennett Memorial

CURRENT METAR :
  • 160653Z AUTO 28003KT 10SM -RA FEW005 SCT041 OVC050 02/01 A2970 RMK AO2 SLP062 P0001 T00170006

EXPIRED METARs :
  • 160639Z AUTO 28003KT 8SM -RA FEW005 BKN038 OVC055 02/01 A2970 RMK AO2 P0001 T00170006
  • 160553Z AUTO 00000KT 9SM -RA OVC008 02/01 A2971 RMK AO2 SLP066 P0005 60039 T00220006 10067 20022 58005
  • 160526Z AUTO 21003KT 9SM -RA BKN009 OVC014 02/01 A2972 RMK AO2 P0003 T00220011
  • 160453Z AUTO 15004KT 9SM -RA BKN012 OVC024 03/01 A2973 RMK AO2 SLP072 P0007 T00330011 401220028

TAF KGFL
Valid from the 16 at 06:00 until the 17 at 06:00 UTC


160548Z 1606/1706 15005KT 5SM -RA BR SCT009 OVC015
TEMPO 1606/1608 3SM -RASN BR OVC009
FM160800 VRB03KT 3SM -RASN BR OVC007
TEMPO 1608/1612 1SM -SN VV005
FM161400 02006KT 5SM -RA BR OVC008
FM161800 01007KT 5SM BR OVC015
TEMPO 1618/1621 4SM -RA BR OVC008
FM162100 01008KT 6SM BR VCSH OVC015
FM170200 35005KT P6SM OVC015
KZBW FIR / North America



MET'MAP, your aeronautical weather chart ! - Copyright ORBIFLY December 2007 - Disclaimer

ORBIFLY MET'MAP TEAM :

Programming & Development : Alexandra Zaïnal
Concept & original design : Baudouin d'Aumeries
Assistance for programming : Marc-Olivier Méhu
Technical & hardware support : Manuel Goepfert

Contact : metmap@orbifly.com




SOURCES & CREDITS :

   NOAA